Terminal Aerodrome Forecast
Issued by NWS Blacksburg, VA

Home | Current Version | Previous Version | Text Only | Print | Product List | Glossary On
Versions: 1 2 3 4 5 6 7 8 9 10 11 12 13 14 15 16 17 18 19 20 21 22 23 24 25 26 27 28 29 30 31
000
FTUS41 KRNK 292324
TAFDAN
TAF
KDAN 292324Z 3000/3024 VRB03KT P6SM SCT070 BKN250
      TEMPO 3010/3013 BKN015
     FM301400 20005KT P6SM SCT040
     FM301800 21008KT P6SM SCT070 BKN250=

USA.gov is the U.S. government's official web portal to all federal, state and local government web resources and services.